createdAt,value
2018-06-21T00:00:26.915Z,13.60
2018-06-21T00:02:54.889Z,13.60
2018-06-21T00:07:50.288Z,13.50
2018-06-21T00:10:18.340Z,13.50
2018-06-21T00:12:46.266Z,13.40
2018-06-21T00:15:14.330Z,13.40
2018-06-21T00:17:42.284Z,13.40
2018-06-21T00:20:10.008Z,13.40
2018-06-21T00:22:38.290Z,13.30
2018-06-21T00:25:06.093Z,13.30
2018-06-21T00:27:33.935Z,13.30
2018-06-21T00:30:01.674Z,13.30
2018-06-21T00:32:29.353Z,13.30
2018-06-21T00:34:57.041Z,13.30
2018-06-21T00:37:24.716Z,13.20
2018-06-21T00:39:52.824Z,13.20
2018-06-21T00:42:20.558Z,13.20
2018-06-21T00:44:48.148Z,13.20
2018-06-21T00:47:15.974Z,13.20
2018-06-21T00:49:43.737Z,13.10
2018-06-21T00:52:11.563Z,13.10
2018-06-21T00:54:39.352Z,13.10
2018-06-21T00:57:07.190Z,13.10
2018-06-21T00:59:34.973Z,13.00
2018-06-21T01:04:30.490Z,13.00
2018-06-21T01:06:58.130Z,13.00
2018-06-21T01:09:26.193Z,12.90
2018-06-21T01:11:53.908Z,13.00
2018-06-21T01:14:21.830Z,12.90
2018-06-21T01:16:49.414Z,12.90
2018-06-21T01:19:17.251Z,12.90
2018-06-21T01:21:45.234Z,12.90
2018-06-21T01:24:12.822Z,12.90
2018-06-21T01:26:40.637Z,12.90
2018-06-21T01:29:08.524Z,12.80
2018-06-21T01:31:36.740Z,12.80
2018-06-21T01:34:04.859Z,12.80
2018-06-21T01:36:32.473Z,12.70
2018-06-21T01:39:00.213Z,12.70
2018-06-21T01:43:56.034Z,12.70
2018-06-21T01:48:51.771Z,12.60
2018-06-21T01:53:47.581Z,12.60
2018-06-21T01:56:15.279Z,12.50
2018-06-21T01:58:42.994Z,12.50
2018-06-21T02:01:10.803Z,12.50
2018-06-21T02:06:06.715Z,12.50
2018-06-21T02:11:02.459Z,12.50
2018-06-21T02:13:30.124Z,12.50
2018-06-21T02:18:25.581Z,12.50
2018-06-21T02:20:53.482Z,12.50
2018-06-21T02:23:21.291Z,12.40
2018-06-21T02:28:16.578Z,12.40
2018-06-21T02:30:44.585Z,12.40
2018-06-21T02:33:12.438Z,12.40
2018-06-21T02:38:07.738Z,12.40
2018-06-21T02:40:35.506Z,12.30
2018-06-21T02:43:03.331Z,12.30
2018-06-21T02:45:31.161Z,12.30
2018-06-21T02:47:58.912Z,12.30
2018-06-21T02:52:54.125Z,12.30
2018-06-21T02:55:21.835Z,12.30
2018-06-21T02:57:49.705Z,12.30
2018-06-21T03:00:17.798Z,12.30
2018-06-21T03:02:45.915Z,12.30
2018-06-21T03:05:13.658Z,12.30
2018-06-21T03:07:42.164Z,12.30
2018-06-21T03:10:10.268Z,12.30
2018-06-21T03:12:38.227Z,12.30
2018-06-21T03:15:07.285Z,12.30
2018-06-21T03:20:02.703Z,12.30
2018-06-21T03:24:58.316Z,12.30
2018-06-21T03:27:26.061Z,12.40
2018-06-21T03:29:53.961Z,12.40
2018-06-21T03:34:49.292Z,12.40
2018-06-21T03:39:44.911Z,12.50
2018-06-21T03:44:40.370Z,12.60
2018-06-21T03:47:08.355Z,12.70
2018-06-21T03:49:36.210Z,12.70
2018-06-21T03:52:04.376Z,12.80
2018-06-21T03:54:32.123Z,12.80
2018-06-21T03:56:59.824Z,12.80
2018-06-21T03:59:27.515Z,12.90
2018-06-21T04:01:55.378Z,12.90
2018-06-21T04:04:23.127Z,13.10
2018-06-21T04:06:50.677Z,13.10
2018-06-21T04:09:18.449Z,13.20
2018-06-21T04:11:46.130Z,13.30
2018-06-21T04:14:13.986Z,13.40
2018-06-21T04:16:41.665Z,13.60
2018-06-21T04:19:09.268Z,13.70
2018-06-21T04:21:37.040Z,13.80
2018-06-21T04:24:05.005Z,13.90
2018-06-21T04:26:33.387Z,14.00
2018-06-21T04:29:01.117Z,14.00
2018-06-21T04:31:28.827Z,14.10
2018-06-21T04:33:56.701Z,14.10
2018-06-21T04:36:24.345Z,14.10
2018-06-21T04:38:52.012Z,14.20
2018-06-21T04:41:19.674Z,14.20
2018-06-21T04:43:47.539Z,14.30
2018-06-21T04:46:15.196Z,14.30
2018-06-21T04:48:42.935Z,14.40
2018-06-21T04:51:10.785Z,14.40
2018-06-21T04:53:38.860Z,14.50
2018-06-21T04:56:06.795Z,14.50
2018-06-21T04:58:34.581Z,14.60
2018-06-21T05:01:02.518Z,14.70
2018-06-21T05:03:30.580Z,14.70
2018-06-21T05:05:58.481Z,14.90
2018-06-21T05:08:26.608Z,15.00
2018-06-21T05:10:54.541Z,15.10
2018-06-21T05:13:22.625Z,15.20
2018-06-21T05:15:50.709Z,15.40
2018-06-21T05:18:18.615Z,15.50
2018-06-21T05:20:46.757Z,15.70
2018-06-21T05:23:14.840Z,16.00
2018-06-21T05:25:42.728Z,16.50
2018-06-21T05:30:38.241Z,17.80
2018-06-21T05:33:06.291Z,18.50
2018-06-21T05:35:33.924Z,19.20
2018-06-21T05:38:01.817Z,19.60
2018-06-21T05:40:37.400Z,19.90
2018-06-21T05:43:05.341Z,20.00
2018-06-21T05:45:33.495Z,19.90
2018-06-21T05:48:02.241Z,19.90
2018-06-21T05:50:31.244Z,20.50
2018-06-21T05:52:59.309Z,21.20
2018-06-21T05:55:27.402Z,22.10
2018-06-21T05:57:55.593Z,23.00
2018-06-21T06:00:24.055Z,24.00
2018-06-21T06:02:52.053Z,24.90
2018-06-21T06:05:20.466Z,25.80
2018-06-21T06:07:48.552Z,26.40
2018-06-21T06:10:16.419Z,27.20
2018-06-21T06:12:44.321Z,27.80
2018-06-21T06:15:12.049Z,28.30
2018-06-21T06:17:39.839Z,28.90
2018-06-21T06:20:07.760Z,29.40
2018-06-21T06:22:35.489Z,29.80
2018-06-21T06:25:03.184Z,30.10
2018-06-21T06:29:58.633Z,30.90
2018-06-21T06:32:26.651Z,31.10
2018-06-21T06:34:54.575Z,31.20
2018-06-21T06:37:22.396Z,31.20
2018-06-21T06:39:50.333Z,31.50
2018-06-21T06:42:18.065Z,31.90
2018-06-21T06:44:45.789Z,32.10
2018-06-21T06:49:41.968Z,32.00
2018-06-21T06:52:10.201Z,31.90
2018-06-21T06:59:33.380Z,32.10
2018-06-21T07:02:01.276Z,31.70
2018-06-21T07:06:56.899Z,30.70
2018-06-21T07:14:20.310Z,29.60
2018-06-21T07:19:15.886Z,29.50
2018-06-21T07:21:43.817Z,29.50
2018-06-21T07:24:11.708Z,29.20
2018-06-21T07:26:39.791Z,29.10
2018-06-21T07:29:08.691Z,28.80
2018-06-21T07:31:37.225Z,28.70
2018-06-21T07:34:05.322Z,28.40
2018-06-21T07:36:33.399Z,28.10
2018-06-21T07:39:01.436Z,27.70
2018-06-21T07:41:29.078Z,27.50
2018-06-21T07:43:56.855Z,27.60
2018-06-21T07:46:24.620Z,27.70
2018-06-21T07:48:52.575Z,27.70
2018-06-21T07:51:20.510Z,27.50
2018-06-21T07:53:48.539Z,27.20
2018-06-21T07:58:44.139Z,27.10
2018-06-21T08:03:39.765Z,27.00
2018-06-21T08:08:35.465Z,27.30
2018-06-21T08:11:03.092Z,27.50
2018-06-21T08:13:30.959Z,27.60
2018-06-21T08:15:58.827Z,27.50
2018-06-21T08:18:26.485Z,27.20
2018-06-21T08:20:54.605Z,27.00
2018-06-21T08:23:22.313Z,27.00
2018-06-21T08:25:49.923Z,26.80
2018-06-21T08:28:17.960Z,26.40
2018-06-21T08:30:45.688Z,26.00
2018-06-21T08:33:13.419Z,25.70
2018-06-21T08:35:41.375Z,25.70
2018-06-21T08:38:09.208Z,25.60
2018-06-21T08:40:37.270Z,25.60
2018-06-21T08:43:05.075Z,25.70
2018-06-21T08:45:32.927Z,25.80
2018-06-21T08:48:00.744Z,25.80
2018-06-21T08:50:28.704Z,25.80
2018-06-21T08:55:24.122Z,26.20
2018-06-21T08:57:51.782Z,26.60
2018-06-21T09:05:15.180Z,26.60
2018-06-21T09:10:10.636Z,27.10
2018-06-21T09:12:38.858Z,27.50
2018-06-21T09:15:08.459Z,27.60
2018-06-21T09:17:36.160Z,27.30
2018-06-21T09:22:32.605Z,26.90
2018-06-21T09:25:01.151Z,27.20
2018-06-21T09:27:29.497Z,27.10
2018-06-21T09:29:57.991Z,26.90
2018-06-21T09:32:26.593Z,26.90
2018-06-21T09:34:54.767Z,27.10
2018-06-21T09:37:28.098Z,27.10
2018-06-21T09:42:35.410Z,27.40
2018-06-21T09:45:03.364Z,27.50
2018-06-21T09:50:04.800Z,27.60
2018-06-21T09:52:32.857Z,27.30
2018-06-21T09:55:00.787Z,27.20
2018-06-21T09:57:28.944Z,27.10
2018-06-21T10:04:52.253Z,26.70
2018-06-21T10:07:20.195Z,26.70
2018-06-21T10:09:47.904Z,26.80
2018-06-21T10:12:15.652Z,26.90
2018-06-21T10:14:43.967Z,27.10
2018-06-21T10:17:12.106Z,27.20
2018-06-21T10:19:41.398Z,27.10
2018-06-21T10:24:37.031Z,27.10
2018-06-21T10:27:04.947Z,27.20
2018-06-21T10:29:33.301Z,27.50
2018-06-21T10:32:01.008Z,27.70
2018-06-21T10:34:28.750Z,27.80
2018-06-21T10:36:56.814Z,27.80
2018-06-21T10:39:24.572Z,27.80
2018-06-21T10:41:52.356Z,27.90
2018-06-21T10:44:20.038Z,28.00
2018-06-21T10:49:15.556Z,26.90
2018-06-21T10:51:43.244Z,26.50
2018-06-21T10:54:11.286Z,26.20
2018-06-21T10:56:39.212Z,25.80
2018-06-21T10:59:07.291Z,25.80
2018-06-21T11:01:35.930Z,25.70
2018-06-21T11:04:03.818Z,25.70
2018-06-21T11:06:31.741Z,25.60
2018-06-21T11:08:59.736Z,25.40
2018-06-21T11:11:27.497Z,25.10
2018-06-21T11:13:55.167Z,24.70
2018-06-21T11:16:23.009Z,24.60
2018-06-21T11:21:18.356Z,22.30
2018-06-21T11:26:13.949Z,20.20
2018-06-21T11:28:41.797Z,19.20
2018-06-21T11:31:09.636Z,18.60
2018-06-21T11:33:37.502Z,18.60
2018-06-21T11:36:05.159Z,18.70
2018-06-21T11:38:32.898Z,18.70
2018-06-21T11:41:00.494Z,18.60
2018-06-21T11:43:28.150Z,18.40
2018-06-21T11:45:55.853Z,18.20
2018-06-21T11:48:23.706Z,17.80
2018-06-21T11:50:51.266Z,17.50
2018-06-21T11:53:19.034Z,17.10
2018-06-21T11:55:47.009Z,16.90
2018-06-21T11:58:14.778Z,16.80
2018-06-21T12:00:42.510Z,16.80
2018-06-21T12:03:10.398Z,16.80
2018-06-21T12:05:38.121Z,16.90
2018-06-21T12:08:06.025Z,17.00
2018-06-21T12:10:33.970Z,17.00
2018-06-21T12:13:01.875Z,17.00
2018-06-21T12:15:29.606Z,17.00
2018-06-21T12:17:57.214Z,16.90
2018-06-21T12:20:24.995Z,16.90
2018-06-21T12:22:52.898Z,16.80
2018-06-21T12:25:20.531Z,16.70
2018-06-21T12:27:48.510Z,16.70
2018-06-21T12:30:16.471Z,16.70
2018-06-21T12:32:44.303Z,16.80
2018-06-21T12:37:40.089Z,17.10
2018-06-21T12:40:07.776Z,17.30
2018-06-21T12:42:35.573Z,17.40
2018-06-21T12:45:03.436Z,17.50
2018-06-21T12:47:31.268Z,17.70
2018-06-21T12:49:59.106Z,17.80
2018-06-21T12:52:26.898Z,18.10
2018-06-21T12:54:54.503Z,18.30
2018-06-21T12:57:22.143Z,18.60
2018-06-21T13:02:17.298Z,19.20
2018-06-21T13:04:44.965Z,19.50
2018-06-21T13:07:12.664Z,19.90
2018-06-21T13:09:51.627Z,20.00
2018-06-21T13:12:36.026Z,20.20
2018-06-21T13:15:04.815Z,20.30
2018-06-21T13:17:32.727Z,20.20
2018-06-21T13:20:01.625Z,20.30
2018-06-21T13:22:30.559Z,20.30
2018-06-21T13:24:58.693Z,20.40
2018-06-21T13:27:27.739Z,20.50
2018-06-21T13:29:55.620Z,20.80
2018-06-21T13:34:51.135Z,20.40
2018-06-21T13:37:18.980Z,20.30
2018-06-21T13:39:46.730Z,20.30
2018-06-21T13:42:14.808Z,20.20
2018-06-21T13:44:42.840Z,20.20
2018-06-21T13:47:10.886Z,20.40
2018-06-21T13:49:38.670Z,20.40
2018-06-21T13:52:06.526Z,20.40
2018-06-21T13:54:34.312Z,20.50
2018-06-21T13:57:02.134Z,20.50
2018-06-21T14:01:57.547Z,20.50
2018-06-21T14:04:25.212Z,20.70
2018-06-21T14:06:53.098Z,20.70
2018-06-21T14:11:48.475Z,20.70
2018-06-21T14:14:16.560Z,20.60
2018-06-21T14:16:44.464Z,20.70
2018-06-21T14:24:09.509Z,20.50
2018-06-21T14:26:38.340Z,20.30
2018-06-21T14:29:06.368Z,20.20
2018-06-21T14:31:35.997Z,20.20
2018-06-21T14:34:03.994Z,20.30
2018-06-21T14:36:32.457Z,20.30
2018-06-21T14:39:00.683Z,20.50
2018-06-21T14:43:56.090Z,20.50
2018-06-21T14:46:23.884Z,20.40
2018-06-21T14:51:19.576Z,20.50
2018-06-21T14:53:47.396Z,20.50
2018-06-21T14:56:15.047Z,20.60
2018-06-21T14:58:43.478Z,20.70
2018-06-21T15:01:11.552Z,20.80
2018-06-21T15:03:39.358Z,20.90
2018-06-21T15:06:07.122Z,20.90
2018-06-21T15:08:35.046Z,20.90
2018-06-21T15:11:02.648Z,20.80
2018-06-21T15:13:30.554Z,20.60
2018-06-21T15:15:58.259Z,20.60
2018-06-21T15:23:21.451Z,20.10
2018-06-21T15:28:17.040Z,19.90
2018-06-21T15:30:45.118Z,19.90
2018-06-21T15:33:12.826Z,20.00
2018-06-21T15:35:41.478Z,20.10
2018-06-21T15:38:09.383Z,20.20
2018-06-21T15:40:37.201Z,20.10
2018-06-21T15:43:05.054Z,20.00
2018-06-21T15:45:32.967Z,19.80
2018-06-21T15:48:00.780Z,19.90
2018-06-21T15:50:28.597Z,19.80
2018-06-21T15:55:24.189Z,19.60
2018-06-21T15:57:52.491Z,19.60
2018-06-21T16:00:20.247Z,19.50
2018-06-21T16:02:48.477Z,19.30
2018-06-21T16:05:16.256Z,19.20
2018-06-21T16:07:44.245Z,19.00
2018-06-21T16:10:12.053Z,19.00
2018-06-21T16:12:39.680Z,18.90
2018-06-21T16:15:08.780Z,18.90
2018-06-21T16:17:36.619Z,18.90
2018-06-21T16:20:04.587Z,18.90
2018-06-21T16:22:32.202Z,18.80
2018-06-21T16:24:59.971Z,18.70
2018-06-21T16:27:27.880Z,18.50
2018-06-21T16:29:55.831Z,18.40
2018-06-21T16:32:23.492Z,18.30
2018-06-21T16:34:51.415Z,18.20
2018-06-21T16:39:46.919Z,18.20
2018-06-21T16:42:14.731Z,18.20
2018-06-21T16:44:42.348Z,18.20
2018-06-21T16:47:10.247Z,18.10
2018-06-21T16:49:37.899Z,18.10
2018-06-21T16:52:05.829Z,18.00
2018-06-21T16:54:33.506Z,17.90
2018-06-21T16:59:29.245Z,18.00
2018-06-21T17:01:56.965Z,18.00
2018-06-21T17:04:24.693Z,17.80
2018-06-21T17:06:52.337Z,17.80
2018-06-21T17:11:47.857Z,17.80
2018-06-21T17:19:10.913Z,17.40
2018-06-21T17:21:39.762Z,17.20
2018-06-21T17:24:07.907Z,17.20
2018-06-21T17:29:03.856Z,17.00
2018-06-21T17:31:31.598Z,17.00
2018-06-21T17:33:59.751Z,16.90
2018-06-21T17:36:27.428Z,16.80
2018-06-21T17:38:55.300Z,16.70
2018-06-21T17:43:50.968Z,16.60
2018-06-21T17:46:18.896Z,16.50
2018-06-21T17:53:42.768Z,16.40
2018-06-21T17:56:10.888Z,16.30
2018-06-21T18:01:07.301Z,16.20
2018-06-21T18:03:35.114Z,16.10
2018-06-21T18:06:02.909Z,16.00
2018-06-21T18:08:30.691Z,15.80
2018-06-21T18:10:58.547Z,15.70
2018-06-21T18:13:26.377Z,15.60
2018-06-21T18:15:54.353Z,15.50
2018-06-21T18:18:22.326Z,15.50
2018-06-21T18:20:50.154Z,15.40
2018-06-21T18:23:18.172Z,15.40
2018-06-21T18:25:45.906Z,15.30
2018-06-21T18:28:13.768Z,15.20
2018-06-21T18:30:41.522Z,15.10
2018-06-21T18:35:37.154Z,15.00
2018-06-21T18:38:04.885Z,14.90
2018-06-21T18:40:32.694Z,14.80
2018-06-21T18:43:00.510Z,14.70
2018-06-21T18:45:28.263Z,14.60
2018-06-21T18:47:56.743Z,14.60
2018-06-21T18:50:24.615Z,14.50
2018-06-21T18:52:52.446Z,14.40
2018-06-21T18:57:48.092Z,14.20
2018-06-21T19:00:15.834Z,14.20
2018-06-21T19:02:43.833Z,14.10
2018-06-21T19:05:12.289Z,14.00
2018-06-21T19:07:40.894Z,13.90
2018-06-21T19:10:14.193Z,13.90
2018-06-21T19:12:42.107Z,13.80
2018-06-21T19:15:09.908Z,13.70
2018-06-21T19:17:37.655Z,13.70
2018-06-21T19:20:05.718Z,13.60
2018-06-21T19:22:33.487Z,13.40
2018-06-21T19:25:01.134Z,13.30
2018-06-21T19:27:28.888Z,13.30
2018-06-21T19:29:56.592Z,13.20
2018-06-21T19:32:24.219Z,13.10
2018-06-21T19:34:51.961Z,13.00
2018-06-21T19:42:15.394Z,12.70
2018-06-21T19:44:43.484Z,12.60
2018-06-21T19:47:12.156Z,12.50
2018-06-21T19:49:39.831Z,12.40
2018-06-21T19:52:07.606Z,12.30
2018-06-21T19:54:35.233Z,12.20
2018-06-21T19:57:02.947Z,12.00
2018-06-21T19:59:30.612Z,11.90
2018-06-21T20:01:59.394Z,11.90
2018-06-21T20:04:26.989Z,11.70
2018-06-21T20:06:54.677Z,11.70
2018-06-21T20:09:23.116Z,11.50
2018-06-21T20:11:50.749Z,11.40
2018-06-21T20:14:18.424Z,11.40
2018-06-21T20:19:16.222Z,11.20
2018-06-21T20:21:44.198Z,11.10
2018-06-21T20:24:12.211Z,11.10
2018-06-21T20:26:40.564Z,11.00
2018-06-21T20:29:13.942Z,10.80
2018-06-21T20:31:42.207Z,10.70
2018-06-21T20:34:09.955Z,10.70
2018-06-21T20:39:07.377Z,10.50
2018-06-21T20:41:35.654Z,10.40
2018-06-21T20:44:03.806Z,10.30
2018-06-21T20:46:31.544Z,10.30
2018-06-21T20:51:26.985Z,10.50
2018-06-21T20:53:54.692Z,10.70
2018-06-21T20:56:22.936Z,10.90
2018-06-21T20:58:50.622Z,11.10
2018-06-21T21:01:18.905Z,11.30
2018-06-21T21:03:46.757Z,11.40
2018-06-21T21:06:14.817Z,11.40
2018-06-21T21:08:43.109Z,11.50
2018-06-21T21:11:11.521Z,11.40
2018-06-21T21:16:08.051Z,11.30
2018-06-21T21:18:36.636Z,11.20
2018-06-21T21:21:04.309Z,11.10
2018-06-21T21:26:00.304Z,10.80
2018-06-21T21:28:27.949Z,10.70
2018-06-21T21:30:55.716Z,10.60
2018-06-21T21:33:23.374Z,10.60
2018-06-21T21:35:51.121Z,10.60
2018-06-21T21:38:18.869Z,10.60
2018-06-21T21:43:14.304Z,10.40
2018-06-21T21:45:42.217Z,10.30
2018-06-21T21:48:09.959Z,10.20
2018-06-21T21:50:38.101Z,10.10
2018-06-21T21:55:34.414Z,10.00
2018-06-21T21:58:02.179Z,9.90
2018-06-21T22:00:50.890Z,9.90
2018-06-21T22:03:18.764Z,9.80
2018-06-21T22:05:46.573Z,9.70
2018-06-21T22:10:43.160Z,9.90
2018-06-21T22:13:11.207Z,10.10
2018-06-21T22:15:39.018Z,10.20
2018-06-21T22:18:07.009Z,10.40
2018-06-21T22:20:34.802Z,10.50
2018-06-21T22:25:30.638Z,10.70
2018-06-21T22:30:27.645Z,10.90
2018-06-21T22:32:55.565Z,10.90
2018-06-21T22:37:51.519Z,10.90
2018-06-21T22:40:19.150Z,10.80
2018-06-21T22:45:14.730Z,10.70
2018-06-21T22:47:42.625Z,10.70
2018-06-21T22:50:10.259Z,10.70
2018-06-21T22:52:38.642Z,10.70
2018-06-21T22:55:06.262Z,10.80
2018-06-21T22:57:34.081Z,10.80
2018-06-21T23:00:01.841Z,10.80
2018-06-21T23:02:29.606Z,10.80
2018-06-21T23:04:57.395Z,10.90
2018-06-21T23:09:53.153Z,10.90
2018-06-21T23:12:20.968Z,10.90
2018-06-21T23:14:49.138Z,10.80
2018-06-21T23:17:16.860Z,10.60
2018-06-21T23:19:44.698Z,10.50
2018-06-21T23:24:39.996Z,10.20
2018-06-21T23:27:08.001Z,10.10
2018-06-21T23:32:03.416Z,9.90
2018-06-21T23:36:58.655Z,9.70
2018-06-21T23:39:26.298Z,9.60
2018-06-21T23:41:54.890Z,9.50
2018-06-21T23:44:22.585Z,9.40
2018-06-21T23:46:50.309Z,9.30
2018-06-21T23:51:45.692Z,9.20
2018-06-21T23:54:13.901Z,9.20
2018-06-21T23:59:10.585Z,9.00
